首页
METAR-TAF:

METAR-TAF

机场 :

Manistee County-Blacker Airport

Manistee, 密歇根州, 美国

纬度: 44-16N, 经度: 086-15W, 海拔: 189米

当前天气观测

该预报发布于27分钟前的07:56 UTC
风速4节,风向
温度 2°C
湿度 80%
气压 1020 hPa
能見度: 16.1公里
阴天层高于2900英尺

METAR: KMBL 310756Z AUTO 36004KT 10SM OVC029 02/M01 A3011 RMK AO2 SLP204 T00171006 FZRANO

时间: 04:23 (08:23 UTC)

预报

该预报发布于3小时和3分钟前的05:20 UTC
预报有效从31日的 06点(UTC)到 01日的 06点(UTC)
风速4节,风向
能見度: 10公里
多云层高于2500英尺
从 01日的 0200点(UTC)
风速5节,风向东北
能見度: 10公里
多云层高于3000英尺

TAF: KMBL 310520Z 3106/0106 36004KT P6SM BKN025 FM010200 04005KT P6SM BKN030

超过4000个机场的气象观测和天气预报(METAR&TAF报告)。

可查询的气象台以黄色和红色小点在地图上表示。

将鼠标移到小点上方,可查看气象台名称。

然后点击查看天气观测和预报。

如需切换地图:点击带黑十字的绿色按钮放大地图;点击带横线的绿色按钮缩小地图;或者点击绿色箭头查看邻近地区的地图。


METAR-TAF: